Time;durP1;ratioP1;P1;durP2;ratioP2;P2;SDS_P1;SDS_P2;PMS_P1;PMS_P2;Temp;Humidity;BMP_temperature;BMP_pressure;BME280_temperature;BME280_humidity;BME280_pressure;Samples;Min_cycle;Max_cycle;Signal;HPM_P1;HPM_P2
2021/07/27 00:02:19;;;;;;;13.80;5.63;;;22.90;99.90;;;;;;4871909;29;20044;-84
2021/07/27 00:04:45;;;;;;;20.95;6.70;;;22.90;99.90;;;;;;4900365;29;20036;-85
2021/07/27 00:07:11;;;;;;;24.05;5.68;;;22.90;99.90;;;;;;4882875;29;20526;-84
2021/07/27 00:09:36;;;;;;;20.38;5.32;;;22.80;99.90;;;;;;4883386;29;20046;-85
2021/07/27 00:12:02;;;;;;;25.00;5.40;;;22.90;99.90;;;;;;4900147;29;20092;-84
2021/07/27 00:14:28;;;;;;;18.98;6.03;;;22.90;99.90;;;;;;4900615;29;20040;-85
2021/07/27 00:16:53;;;;;;;17.95;5.30;;;22.90;99.90;;;;;;4900092;29;20033;-83
2021/07/27 00:19:19;;;;;;;20.63;5.57;;;23.00;99.90;;;;;;4898697;29;20465;-84
2021/07/27 00:21:45;;;;;;;16.13;5.70;;;23.00;99.90;;;;;;4898568;29;20045;-85
2021/07/27 00:24:10;;;;;;;14.68;4.78;;;23.00;99.90;;;;;;4899643;29;20490;-84
2021/07/27 00:26:36;;;;;;;16.20;4.75;;;23.00;99.90;;;;;;4883494;29;20379;-84
2021/07/27 00:29:02;;;;;;;13.32;4.85;;;23.00;99.90;;;;;;4882839;29;20155;-84
2021/07/27 00:31:28;;;;;;;23.98;5.97;;;23.10;99.90;;;;;;4899029;29;20045;-84
2021/07/27 00:33:54;;;;;;;12.75;5.22;;;23.10;99.90;;;;;;4899264;29;20496;-84
2021/07/27 00:36:20;;;;;;;21.83;6.00;;;23.20;99.90;;;;;;4897197;29;20163;-84
2021/07/27 00:38:45;;;;;;;24.92;5.95;;;23.20;99.90;;;;;;4881591;29;20036;-85
2021/07/27 00:41:11;;;;;;;17.30;5.43;;;23.20;99.90;;;;;;4881444;29;20040;-84
2021/07/27 00:43:37;;;;;;;17.42;5.70;;;23.10;99.90;;;;;;4899254;29;20100;-84
2021/07/27 00:46:03;;;;;;;21.40;6.18;;;23.10;99.90;;;;;;4898896;29;20513;-85
2021/07/27 00:48:28;;;;;;;16.92;5.70;;;23.10;99.90;;;;;;4898955;29;20547;-85
2021/07/27 00:50:54;;;;;;;20.23;5.70;;;23.10;99.90;;;;;;4891417;29;20045;-84
2021/07/27 00:53:20;;;;;;;14.55;5.68;;;23.10;99.90;;;;;;4898550;29;20048;-85
2021/07/27 00:55:48;;;;;;;23.73;6.40;;;23.10;99.90;;;;;;4885333;29;20044;-84
2021/07/27 00:58:14;;;;;;;21.00;6.32;;;23.10;99.90;;;;;;4898691;29;20477;-84
2021/07/27 01:00:39;;;;;;;19.92;6.75;;;23.10;99.90;;;;;;4882011;29;20039;-84
2021/07/27 01:03:05;;;;;;;20.80;6.13;;;23.10;99.90;;;;;;4898890;29;20044;-85
2021/07/27 01:05:31;;;;;;;21.30;7.03;;;23.20;99.90;;;;;;4881765;29;20401;-85
2021/07/27 01:08:00;;;;;;;16.15;6.88;;;23.10;99.90;;;;;;4876454;29;20510;-85
2021/07/27 01:10:25;;;;;;;26.40;8.15;;;23.10;99.90;;;;;;4881425;29;20037;-84
2021/07/27 01:12:51;;;;;;;30.48;7.82;;;23.20;99.90;;;;;;4898536;29;20048;-84
2021/07/27 01:15:17;;;;;;;25.60;7.13;;;23.20;99.90;;;;;;4898425;29;20493;-84
2021/07/27 01:17:43;;;;;;;22.55;8.30;;;23.20;99.90;;;;;;4898424;29;20110;-84
2021/07/27 01:44:02;;;;;;;23.45;8.73;;;23.30;99.90;;;;;;4898509;29;20040;-84
2021/07/27 01:46:34;;;;;;;17.92;7.90;;;23.30;99.90;;;;;;4898779;29;20036;-85
2021/07/27 01:49:01;;;;;;;18.42;8.32;;;23.40;99.90;;;;;;4898577;29;20439;-85
2021/07/27 01:51:27;;;;;;;30.42;8.35;;;23.40;99.90;;;;;;4880843;29;20039;-84
2021/07/27 01:53:54;;;;;;;27.73;8.93;;;23.40;99.90;;;;;;4885613;29;20096;-85
2021/07/27 01:56:22;;;;;;;22.55;8.18;;;23.50;99.90;;;;;;4899072;29;20510;-84
2021/07/27 01:58:51;;;;;;;26.70;7.88;;;23.50;99.90;;;;;;4881935;29;20422;-84
2021/07/27 02:01:20;;;;;;;26.35;8.30;;;23.50;99.90;;;;;;4898226;29;20056;-85
2021/07/27 02:03:46;;;;;;;23.55;8.50;;;23.60;99.90;;;;;;4898483;29;20085;-84
2021/07/27 02:06:11;;;;;;;23.67;8.82;;;23.60;99.90;;;;;;4898334;29;20037;-85
2021/07/27 02:08:37;;;;;;;23.70;9.02;;;23.50;99.90;;;;;;4881582;29;20052;-85
2021/07/27 02:11:05;;;;;;;22.33;8.52;;;23.60;99.90;;;;;;4897852;29;20120;-85
2021/07/27 02:13:33;;;;;;;29.17;10.50;;;23.50;99.90;;;;;;4898670;29;20071;-85
2021/07/27 02:16:00;;;;;;;35.15;9.80;;;23.60;99.90;;;;;;4881897;29;20036;-85
2021/07/27 02:18:26;;;;;;;30.42;9.15;;;23.60;99.90;;;;;;4885372;29;20041;-84
2021/07/27 02:20:52;;;;;;;29.67;9.65;;;23.70;99.90;;;;;;4897599;29;20040;-84
2021/07/27 02:23:19;;;;;;;34.95;11.40;;;23.70;99.90;;;;;;4879331;29;20037;-84
2021/07/27 02:25:44;;;;;;;26.63;10.23;;;23.70;99.90;;;;;;4881322;29;20398;-84
2021/07/27 02:28:13;;;;;;;34.83;10.50;;;23.70;99.90;;;;;;4897055;29;20044;-84
2021/07/27 02:30:43;;;;;;;25.33;9.00;;;23.80;99.90;;;;;;4896475;29;20103;-85
2021/07/27 02:33:09;;;;;;;23.65;10.45;;;23.80;99.90;;;;;;4897838;29;20508;-84
2021/07/27 02:35:36;;;;;;;23.73;9.57;;;23.90;99.90;;;;;;4897755;29;20184;-84
2021/07/27 02:38:01;;;;;;;26.48;10.20;;;23.90;99.90;;;;;;4897922;29;20043;-84
2021/07/27 02:40:27;;;;;;;22.52;9.85;;;23.90;99.90;;;;;;4897954;29;20107;-83
2021/07/27 02:42:53;;;;;;;33.92;9.52;;;24.10;99.90;;;;;;4897817;29;20751;-84
2021/07/27 02:45:25;;;;;;;31.88;10.13;;;24.20;99.90;;;;;;4897839;29;20570;-84
2021/07/27 02:47:50;;;;;;;27.35;9.57;;;24.10;99.90;;;;;;4868573;29;20127;-83
2021/07/27 02:50:16;;;;;;;24.40;9.85;;;24.10;99.90;;;;;;4897701;29;20525;-83
2021/07/27 02:52:45;;;;;;;32.03;9.95;;;24.10;99.90;;;;;;4872715;29;20048;-84
2021/07/27 02:55:11;;;;;;;26.65;9.27;;;24.10;99.90;;;;;;4880689;29;20127;-83
2021/07/27 02:57:38;;;;;;;31.58;10.60;;;24.10;99.90;;;;;;4897380;29;20067;-83
2021/07/27 03:00:08;;;;;;;39.05;9.63;;;24.10;99.90;;;;;;4897757;29;20072;-84
2021/07/27 03:02:43;;;;;;;25.65;9.20;;;24.20;99.90;;;;;;4897174;29;20592;-84
2021/07/27 03:05:09;;;;;;;42.00;10.50;;;24.20;99.90;;;;;;4897656;29;20535;-84
2021/07/27 03:07:48;;;;;;;25.75;10.20;;;24.20;99.90;;;;;;4880583;29;20037;-84
2021/07/27 03:10:19;;;;;;;29.08;10.48;;;24.20;99.90;;;;;;4897717;29;20481;-84
2021/07/27 03:12:53;;;;;;;34.72;10.75;;;24.20;99.90;;;;;;4896884;29;20632;-83
2021/07/27 03:15:24;;;;;;;34.13;10.63;;;24.20;99.90;;;;;;4897224;29;20060;-83
2021/07/27 03:17:58;;;;;;;28.60;11.17;;;24.30;99.90;;;;;;4880187;29;20128;-84
2021/07/27 03:20:25;;;;;;;31.33;10.57;;;24.30;99.90;;;;;;4880546;29;20052;-84
2021/07/27 03:22:55;;;;;;;24.67;10.23;;;24.30;99.90;;;;;;4887181;29;20052;-83
2021/07/27 03:25:21;;;;;;;31.13;10.70;;;24.30;99.90;;;;;;4895703;29;20052;-84
2021/07/27 03:27:49;;;;;;;24.48;9.82;;;24.30;99.90;;;;;;4896868;29;20037;-83
2021/07/27 03:30:16;;;;;;;33.78;9.60;;;24.30;99.90;;;;;;4880437;29;20036;-84
2021/07/27 03:32:43;;;;;;;34.35;9.70;;;24.40;99.90;;;;;;4896931;29;20403;-83
2021/07/27 03:35:11;;;;;;;35.10;11.07;;;24.40;99.90;;;;;;4896903;29;20033;-84
2021/07/27 03:37:36;;;;;;;37.25;10.75;;;24.50;99.90;;;;;;4897411;29;20047;-83
2021/07/27 03:40:02;;;;;;;26.95;9.82;;;24.60;99.90;;;;;;4896969;29;20032;-84
2021/07/27 03:42:28;;;;;;;27.13;9.90;;;24.60;99.90;;;;;;4896797;29;20024;-83
2021/07/27 03:44:58;;;;;;;26.90;10.98;;;24.70;99.90;;;;;;4896598;29;20060;-83
2021/07/27 03:47:24;;;;;;;39.42;10.80;;;24.70;99.90;;;;;;4879817;29;20029;-84
2021/07/27 03:49:50;;;;;;;36.03;11.40;;;24.60;99.90;;;;;;4872191;29;20394;-84
2021/07/27 03:52:15;;;;;;;27.83;11.32;;;24.70;99.90;;;;;;4877051;29;20037;-84
2021/07/27 03:54:41;;;;;;;31.27;11.13;;;24.70;99.90;;;;;;4896462;29;20045;-84
2021/07/27 03:57:07;;;;;;;32.72;11.10;;;24.70;99.90;;;;;;4896196;29;20025;-84
2021/07/27 03:59:34;;;;;;;27.23;11.07;;;24.70;99.90;;;;;;4896679;29;20037;-84
2021/07/27 04:02:00;;;;;;;32.80;10.60;;;24.70;99.90;;;;;;4879200;29;20188;-83
2021/07/27 04:04:26;;;;;;;40.22;10.55;;;24.80;99.90;;;;;;4896805;29;20108;-85
2021/07/27 04:06:54;;;;;;;32.67;11.15;;;24.90;99.90;;;;;;4896765;29;20115;-84
2021/07/27 04:09:20;;;;;;;27.90;11.07;;;24.90;99.90;;;;;;4896543;29;20503;-85
2021/07/27 04:11:46;;;;;;;46.38;10.73;;;24.90;99.90;;;;;;4879650;29;20068;-85
2021/07/27 04:14:12;;;;;;;31.50;11.48;;;24.80;99.90;;;;;;4896859;29;20099;-84
2021/07/27 04:16:39;;;;;;;37.38;11.35;;;24.80;99.90;;;;;;4879814;29;20037;-84
2021/07/27 04:19:05;;;;;;;37.05;11.93;;;24.80;99.90;;;;;;4879745;29;20040;-85
2021/07/27 04:21:31;;;;;;;29.33;11.73;;;24.80;99.90;;;;;;4875764;29;20036;-84
2021/07/27 04:23:57;;;;;;;32.80;11.13;;;24.80;99.90;;;;;;4891847;29;20043;-85
2021/07/27 04:26:23;;;;;;;34.95;11.88;;;24.80;99.90;;;;;;4876503;29;20029;-85
2021/07/27 04:28:48;;;;;;;44.88;12.40;;;24.90;99.90;;;;;;4894442;29;20055;-85
2021/07/27 04:31:18;;;;;;;43.70;12.15;;;24.90;99.90;;;;;;4879663;29;20041;-84
2021/07/27 04:33:44;;;;;;;37.83;11.32;;;25.00;99.90;;;;;;4879716;29;20052;-85
2021/07/27 04:36:09;;;;;;;37.00;11.35;;;25.10;99.90;;;;;;4893928;29;20048;-84
2021/07/27 04:38:35;;;;;;;37.17;12.95;;;25.10;99.90;;;;;;4895537;29;20036;-85
2021/07/27 04:41:05;;;;;;;33.58;11.98;;;25.20;99.90;;;;;;4896443;29;20478;-84
2021/07/27 04:43:31;;;;;;;36.92;10.95;;;25.40;99.90;;;;;;4884518;29;20037;-85
2021/07/27 04:46:04;;;;;;;32.78;12.40;;;25.50;99.90;;;;;;4879625;29;20048;-85
2021/07/27 04:48:30;;;;;;;28.90;12.90;;;25.60;99.90;;;;;;4898856;29;20036;-85
2021/07/27 04:50:57;;;;;;;43.17;11.65;;;25.70;99.90;;;;;;4899033;29;20035;-85
2021/07/27 04:53:23;;;;;;;34.53;12.77;;;25.90;99.90;;;;;;4897607;29;20447;-84
2021/07/27 04:55:50;;;;;;;37.17;11.45;;;26.00;99.90;;;;;;4897788;29;20052;-84
2021/07/27 04:58:16;;;;;;;40.30;12.82;;;26.00;99.90;;;;;;4897867;29;20056;-84
2021/07/27 05:00:42;;;;;;;29.45;12.30;;;26.00;99.90;;;;;;4897569;29;20036;-84
2021/07/27 05:03:08;;;;;;;32.08;12.85;;;26.10;99.90;;;;;;4868055;29;20033;-85
2021/07/27 05:05:34;;;;;;;32.63;12.30;;;26.20;99.90;;;;;;4881327;29;20068;-88
2021/07/27 05:07:59;;;;;;;28.73;11.93;;;26.30;99.90;;;;;;4894016;29;20029;-87
2021/07/27 05:10:25;;;;;;;46.38;13.55;;;26.50;99.90;;;;;;4880827;29;20033;-88
2021/07/27 05:13:09;;;;;;;31.02;12.43;;;26.60;99.90;;;;;;4897734;29;20076;-87
2021/07/27 05:15:38;;;;;;;47.33;12.93;;;26.90;99.90;;;;;;4895382;29;20047;-86
2021/07/27 05:18:04;;;;;;;34.40;12.43;;;26.80;99.90;;;;;;4891066;29;20028;-86
2021/07/27 05:20:30;;;;;;;46.72;12.27;;;26.60;99.90;;;;;;4884014;29;20301;-88
2021/07/27 05:22:56;;;;;;;35.05;12.10;;;26.30;99.90;;;;;;4898345;29;20071;-85
2021/07/27 05:25:22;;;;;;;43.30;12.05;;;26.10;99.90;;;;;;4899051;29;20043;-86
2021/07/27 05:27:47;;;;;;;30.00;11.18;;;26.00;99.90;;;;;;4899489;29;20468;-87
2021/07/27 05:30:23;;;;;;;30.25;11.98;;;25.90;99.90;;;;;;4899982;29;20033;-89
2021/07/27 05:32:52;;;;;;;34.30;11.35;;;25.80;99.90;;;;;;4882865;29;20132;-92
2021/07/27 05:35:17;;;;;;;18.25;9.57;;;25.70;99.90;;;;;;4882466;29;20128;-88
2021/07/27 05:38:03;;;;;;;42.38;12.27;;;25.70;99.90;;;;;;4895389;29;20112;-85
2021/07/27 05:40:55;;;;;;;38.17;12.23;;;25.70;99.90;;;;;;4893530;29;20119;-89
2021/07/27 05:43:36;;;;;;;32.03;11.38;;;25.80;99.90;;;;;;4800815;29;20077;-89
2021/07/27 05:46:11;;;;;;;30.67;11.65;;;25.80;99.90;;;;;;4878034;29;20049;-89
2021/07/27 05:48:38;;;;;;;45.17;12.13;;;25.90;99.90;;;;;;4879356;29;20165;-87
2021/07/27 05:51:24;;;;;;;33.85;11.25;;;25.90;99.90;;;;;;4886853;23;20034;-90
2021/07/27 05:53:56;;;;;;;29.15;11.73;;;26.00;99.90;;;;;;4881253;23;20045;-90
2021/07/27 05:56:33;;;;;;;36.67;11.48;;;26.00;99.90;;;;;;4913963;29;20033;-90
2021/07/27 05:59:17;;;;;;;32.13;11.55;;;26.10;99.90;;;;;;4899838;29;20545;-90
2021/07/27 06:01:43;;;;;;;34.92;10.60;;;26.90;99.90;;;;;;4903223;29;20037;-91
2021/07/27 06:04:09;;;;;;;23.67;9.70;;;27.20;99.90;;;;;;4898129;29;20446;-90
2021/07/27 06:06:44;;;;;;;32.67;11.52;;;27.80;99.90;;;;;;4898420;29;20434;-91
2021/07/27 06:09:20;;;;;;;32.58;9.38;;;28.70;99.90;;;;;;4913478;29;20513;-91
2021/07/27 06:11:48;;;;;;;23.48;9.88;;;29.40;99.90;;;;;;4897294;29;20035;-90
2021/07/27 06:14:32;;;;;;;28.95;10.95;;;29.90;99.90;;;;;;4898229;29;20040;-91
2021/07/27 06:16:58;;;;;;;30.10;8.27;;;30.20;99.90;;;;;;4897907;29;20037;-90
2021/07/27 06:19:25;;;;;;;26.38;9.23;;;30.80;99.90;;;;;;4905664;29;20125;-89
2021/07/27 06:22:33;;;;;;;32.30;9.60;;;30.90;99.90;;;;;;4899984;29;20064;-90
2021/07/27 06:25:15;;;;;;;32.50;9.35;;;31.00;99.90;;;;;;4841260;29;20050;-89
2021/07/27 06:27:49;;;;;;;27.15;8.18;;;31.30;99.90;;;;;;4840972;29;20473;-92
2021/07/27 06:30:15;;;;;;;32.28;7.55;;;31.70;99.90;;;;;;4823443;29;20087;-91
2021/07/27 06:32:41;;;;;;;23.80;8.40;;;32.10;99.90;;;;;;4844076;29;20054;-88
2021/07/27 06:35:07;;;;;;;29.23;8.88;;;31.80;99.90;;;;;;4896770;29;20036;-88
2021/07/27 06:37:33;;;;;;;28.70;8.80;;;31.10;99.90;;;;;;4884717;29;20041;-87
2021/07/27 06:39:58;;;;;;;26.35;8.75;;;31.10;99.90;;;;;;4887094;29;20471;-88
2021/07/27 06:42:30;;;;;;;27.85;8.50;;;31.00;99.90;;;;;;4895572;29;20437;-87
2021/07/27 06:44:56;;;;;;;24.23;9.02;;;30.90;99.90;;;;;;4892340;29;20079;-87
2021/07/27 06:47:21;;;;;;;27.65;8.68;;;30.50;99.90;;;;;;4897682;29;20061;-88
2021/07/27 06:49:47;;;;;;;26.00;8.90;;;29.80;99.90;;;;;;4897313;29;20048;-88
2021/07/27 06:52:22;;;;;;;27.80;9.05;;;29.50;99.90;;;;;;4896398;29;20036;-86
2021/07/27 06:54:49;;;;;;;27.10;8.13;;;29.80;99.90;;;;;;4912349;29;20521;-87
2021/07/27 06:57:22;;;;;;;31.25;9.25;;;29.90;99.90;;;;;;4917116;29;20122;-88
2021/07/27 06:59:47;;;;;;;30.63;9.45;;;29.70;99.90;;;;;;4900109;29;20036;-87
2021/07/27 07:02:13;;;;;;;28.23;9.15;;;29.30;99.90;;;;;;4899997;29;20039;-87
2021/07/27 07:04:38;;;;;;;28.33;9.68;;;29.10;99.90;;;;;;4914727;29;20028;-87
2021/07/27 07:07:08;;;;;;;39.67;9.20;;;28.70;99.90;;;;;;4890929;29;20040;-87
2021/07/27 07:09:34;;;;;;;31.38;10.05;;;28.40;99.90;;;;;;4895763;29;20036;-88
2021/07/27 07:14:45;;;;;;;26.88;8.70;;;27.90;99.90;;;;;;4878739;29;20111;-89
2021/07/27 07:17:53;;;;;;;34.55;9.85;;;27.70;99.90;;;;;;4890631;29;20554;-89
2021/07/27 07:20:22;;;;;;;30.48;8.95;;;27.50;99.90;;;;;;4822204;29;20035;-89
2021/07/27 07:22:48;;;;;;;36.55;10.88;;;27.40;99.90;;;;;;4818208;29;20046;-89
2021/07/27 07:25:14;;;;;;;43.95;12.45;;;27.10;99.90;;;;;;4817937;29;20495;-87
2021/07/27 07:27:39;;;;;;;46.15;12.63;;;26.70;99.90;;;;;;4836281;29;20069;-84
2021/07/27 07:30:06;;;;;;;46.67;13.98;;;26.40;99.90;;;;;;4898197;29;20082;-83
2021/07/27 07:32:31;;;;;;;35.75;13.77;;;26.10;99.90;;;;;;4913347;29;20068;-85
2021/07/27 07:34:59;;;;;;;48.20;13.38;;;26.00;99.90;;;;;;4916235;29;20035;-84
2021/07/27 07:37:24;;;;;;;38.88;12.98;;;26.00;99.90;;;;;;4915344;29;20036;-86
2021/07/27 07:39:50;;;;;;;46.90;14.77;;;26.00;99.90;;;;;;4895845;29;20047;-84
2021/07/27 07:42:15;;;;;;;36.95;13.30;;;26.00;99.90;;;;;;4915246;29;20079;-86
2021/07/27 07:44:41;;;;;;;48.80;13.02;;;26.00;99.90;;;;;;4913279;29;20532;-84
2021/07/27 07:47:07;;;;;;;49.42;12.07;;;26.00;99.90;;;;;;4896770;29;20024;-85
2021/07/27 07:49:33;;;;;;;39.05;12.70;;;26.00;99.90;;;;;;4907823;29;20402;-85
2021/07/27 07:51:58;;;;;;;51.33;14.80;;;26.00;99.90;;;;;;4905288;29;20072;-84
2021/07/27 07:54:25;;;;;;;45.58;13.90;;;26.10;99.90;;;;;;4913548;29;20138;-85
2021/07/27 07:56:51;;;;;;;42.47;13.00;;;26.00;99.90;;;;;;4914061;29;20091;-86
2021/07/27 07:59:18;;;;;;;45.28;11.65;;;26.00;99.90;;;;;;4896569;29;20523;-86
2021/07/27 08:01:49;;;;;;;42.60;11.70;;;25.90;99.90;;;;;;4911271;29;20045;-84
2021/07/27 08:04:15;;;;;;;44.53;13.82;;;25.90;99.90;;;;;;4914200;29;20028;-84
2021/07/27 08:06:41;;;;;;;40.85;13.13;;;25.90;99.90;;;;;;4914392;29;20465;-83
2021/07/27 08:09:06;;;;;;;41.33;14.48;;;25.80;99.90;;;;;;4913519;29;20039;-84
2021/07/27 08:11:32;;;;;;;40.05;14.82;;;25.60;99.90;;;;;;4907088;29;20037;-86
2021/07/27 08:13:58;;;;;;;50.75;16.02;;;25.40;99.90;;;;;;4897984;29;20134;-83
2021/07/27 08:16:26;;;;;;;38.17;14.57;;;25.10;99.90;;;;;;4915066;29;20489;-84
2021/07/27 08:18:52;;;;;;;46.92;14.95;;;25.00;99.90;;;;;;4915104;29;20052;-83
2021/07/27 08:21:24;;;;;;;35.20;14.05;;;24.90;99.90;;;;;;4916824;29;20039;-83
2021/07/27 08:23:51;;;;;;;41.17;13.80;;;24.80;99.90;;;;;;4918581;29;20474;-84
2021/07/27 08:26:17;;;;;;;34.13;13.63;;;24.80;99.90;;;;;;4918791;29;20039;-84
2021/07/27 08:28:43;;;;;;;39.72;12.90;;;24.90;99.90;;;;;;4918517;29;20096;-85
2021/07/27 08:31:10;;;;;;;39.38;12.30;;;24.80;99.90;;;;;;4911350;29;20047;-86
2021/07/27 08:33:36;;;;;;;30.67;11.18;;;24.90;99.90;;;;;;4918791;29;20044;-85
2021/07/27 08:36:02;;;;;;;33.08;11.98;;;24.90;99.90;;;;;;4919108;29;20500;-86
2021/07/27 08:38:27;;;;;;;42.40;12.77;;;24.90;99.90;;;;;;4919304;29;20032;-84
2021/07/27 08:40:57;;;;;;;36.30;12.07;;;24.90;99.90;;;;;;4918880;29;20035;-84
2021/07/27 08:43:24;;;;;;;35.83;12.38;;;25.00;99.90;;;;;;4915682;29;20048;-84
2021/07/27 08:45:51;;;;;;;44.85;13.07;;;24.90;99.90;;;;;;4918884;29;20024;-84
2021/07/27 08:48:17;;;;;;;40.72;12.50;;;24.80;99.90;;;;;;4902340;29;20040;-85
2021/07/27 08:50:44;;;;;;;36.38;11.20;;;24.90;99.90;;;;;;4918884;29;20095;-83
2021/07/27 08:53:11;;;;;;;34.88;11.10;;;24.80;99.90;;;;;;4918671;29;20043;-84
2021/07/27 08:55:37;;;;;;;33.75;12.05;;;24.80;99.90;;;;;;4918606;29;20087;-84
2021/07/27 08:58:02;;;;;;;37.40;11.70;;;24.90;99.90;;;;;;4901804;29;20036;-84
2021/07/27 09:00:30;;;;;;;37.25;10.95;;;25.00;99.90;;;;;;4918742;29;20032;-84
2021/07/27 09:03:09;;;;;;;41.58;10.45;;;25.10;99.90;;;;;;4918660;29;20039;-82
2021/07/27 09:05:35;;;;;;;36.28;10.90;;;25.20;99.90;;;;;;4917543;29;20240;-86
2021/07/27 09:08:02;;;;;;;38.20;10.85;;;25.30;99.90;;;;;;4915734;29;20112;-84
2021/07/27 09:10:29;;;;;;;41.55;11.27;;;25.40;99.90;;;;;;4918484;29;20032;-85
2021/07/27 09:12:59;;;;;;;29.88;9.63;;;25.60;99.90;;;;;;4918106;29;20054;-85
2021/07/27 09:15:28;;;;;;;39.85;11.93;;;25.80;99.90;;;;;;4918660;29;20036;-85
2021/07/27 09:17:59;;;;;;;36.83;9.82;;;26.00;99.90;;;;;;4918279;29;20060;-84
2021/07/27 09:20:41;;;;;;;37.75;10.02;;;26.10;99.90;;;;;;4918451;29;20099;-84
2021/07/27 09:23:15;;;;;;;38.45;9.25;;;26.20;99.90;;;;;;4918224;29;20037;-85
2021/07/27 09:25:52;;;;;;;31.00;9.60;;;26.30;99.90;;;;;;4918508;29;20374;-85
2021/07/27 09:28:19;;;;;;;26.67;9.98;;;26.30;99.90;;;;;;4917566;29;20036;-85
2021/07/27 09:30:47;;;;;;;28.58;9.05;;;26.60;99.90;;;;;;4900891;29;20027;-85
2021/07/27 09:33:14;;;;;;;34.42;9.10;;;26.70;99.90;;;;;;4917791;29;20066;-85
2021/07/27 09:35:41;;;;;;;29.83;8.80;;;26.90;99.90;;;;;;4902618;29;20032;-85
2021/07/27 09:38:07;;;;;;;36.80;9.15;;;27.10;99.90;;;;;;4900962;29;20044;-87
2021/07/27 09:40:48;;;;;;;39.20;10.60;;;27.20;99.90;;;;;;4917662;29;20088;-86
2021/07/27 09:43:19;;;;;;;28.48;9.43;;;27.40;99.90;;;;;;4917205;29;20115;-86
2021/07/27 09:45:52;;;;;;;35.85;9.15;;;27.60;99.90;;;;;;4916365;29;20024;-87
2021/07/27 09:48:20;;;;;;;26.27;9.18;;;27.60;99.90;;;;;;4917219;29;20107;-84
2021/07/27 09:50:51;;;;;;;33.95;9.45;;;27.70;99.90;;;;;;4916879;29;20025;-85
2021/07/27 09:53:17;;;;;;;37.47;9.45;;;27.80;99.90;;;;;;4916163;29;20542;-84
2021/07/27 09:55:44;;;;;;;28.23;9.15;;;27.90;99.90;;;;;;4916930;29;20519;-87
2021/07/27 09:58:10;;;;;;;43.58;9.82;;;28.10;99.90;;;;;;4896641;29;20115;-87
2021/07/27 10:00:49;;;;;;;34.53;9.30;;;28.50;99.90;;;;;;4910054;29;20528;-86
2021/07/27 10:03:40;;;;;;;33.00;8.70;;;28.70;99.90;;;;;;4905020;29;20036;-90
2021/07/27 10:06:18;;;;;;;37.78;8.60;;;28.90;99.90;;;;;;4901918;29;20044;-92
2021/07/27 10:08:53;;;;;;;27.48;8.40;;;29.30;99.90;;;;;;4903024;29;20068;-91
2021/07/27 10:11:19;;;;;;;38.08;8.05;;;29.40;99.90;;;;;;4916754;29;20029;-90
2021/07/27 10:14:17;;;;;;;41.67;8.52;;;29.60;99.90;;;;;;4889447;29;20056;-91
2021/07/27 10:16:44;;;;;;;26.80;9.15;;;29.80;99.90;;;;;;4958705;23;20053;-92
2021/07/27 10:19:12;;;;;;;31.98;8.90;;;30.00;99.90;;;;;;4899029;29;20040;-92
2021/07/27 10:21:42;;;;;;;33.78;9.00;;;29.90;99.90;;;;;;4898558;29;20108;-90
2021/07/27 10:24:23;;;;;;;28.08;8.57;;;30.00;99.90;;;;;;4898167;29;20620;-86
2021/07/27 10:26:49;;;;;;;40.55;9.43;;;30.00;99.90;;;;;;4895983;29;20044;-87
2021/07/27 10:29:27;;;;;;;37.88;9.23;;;30.10;99.90;;;;;;4896912;29;20130;-87
2021/07/27 10:31:54;;;;;;;26.55;8.48;;;30.20;99.90;;;;;;4895148;29;20051;-87
2021/07/27 10:34:19;;;;;;;35.95;9.63;;;30.30;99.90;;;;;;4896154;29;20044;-88
2021/07/27 10:36:49;;;;;;;32.72;8.35;;;30.20;99.90;;;;;;4895600;29;20040;-87
2021/07/27 10:39:16;;;;;;;36.45;8.02;;;30.10;99.90;;;;;;4893421;29;20032;-89
2021/07/27 10:41:49;;;;;;;38.72;8.63;;;30.10;99.90;;;;;;4894863;29;20025;-87
2021/07/27 10:44:21;;;;;;;27.38;8.00;;;30.10;99.90;;;;;;4893680;29;20028;-87
2021/07/27 10:46:51;;;;;;;27.10;8.27;;;30.20;99.90;;;;;;4893374;29;20036;-88
2021/07/27 10:49:22;;;;;;;33.92;8.25;;;30.20;99.90;;;;;;4879195;29;20048;-88
2021/07/27 10:51:50;;;;;;;28.17;8.02;;;30.30;99.90;;;;;;4892941;29;20505;-87
2021/07/27 10:54:17;;;;;;;35.20;8.85;;;30.50;99.90;;;;;;4894993;29;20081;-87
2021/07/27 10:56:58;;;;;;;36.17;10.07;;;30.70;99.90;;;;;;4879297;29;20398;-87
2021/07/27 10:59:26;;;;;;;26.65;7.63;;;30.80;99.90;;;;;;4878905;29;20033;-87
2021/07/27 11:01:54;;;;;;;32.50;7.93;;;30.60;99.90;;;;;;4899494;29;20033;-87
2021/07/27 11:04:29;;;;;;;34.92;8.48;;;30.50;99.90;;;;;;4896005;29;20041;-88
2021/07/27 11:07:12;;;;;;;30.13;7.60;;;30.50;99.90;;;;;;4890199;29;20040;-87
2021/07/27 11:09:53;;;;;;;47.22;8.65;;;30.60;99.90;;;;;;4896794;29;20020;-88
2021/07/27 11:12:41;;;;;;;34.03;8.13;;;30.70;99.90;;;;;;4891548;29;20114;-87
2021/07/27 11:15:11;;;;;;;32.80;7.90;;;30.80;99.90;;;;;;4895357;29;20463;-87
2021/07/27 11:17:42;;;;;;;49.85;8.25;;;31.10;99.90;;;;;;4878402;29;20397;-88
2021/07/27 11:20:09;;;;;;;34.33;9.73;;;31.20;99.90;;;;;;4894678;29;20040;-87
2021/07/27 11:22:35;;;;;;;45.08;9.27;;;31.10;99.90;;;;;;4878373;29;20496;-87
2021/07/27 11:25:01;;;;;;;24.20;6.85;;;31.20;99.90;;;;;;4894095;29;20347;-88
2021/07/27 11:27:35;;;;;;;27.42;8.02;;;31.30;99.90;;;;;;4895375;29;20059;-87
2021/07/27 11:30:05;;;;;;;26.77;6.95;;;31.30;99.90;;;;;;4895297;29;20024;-88
2021/07/27 11:32:45;;;;;;;32.90;8.57;;;31.20;99.90;;;;;;4894825;29;20387;-87
2021/07/27 11:35:22;;;;;;;43.05;8.45;;;31.20;99.90;;;;;;4894951;29;20037;-89
2021/07/27 11:38:00;;;;;;;37.28;8.45;;;31.20;99.90;;;;;;4891626;29;20040;-88
2021/07/27 11:40:28;;;;;;;40.50;8.57;;;31.10;99.90;;;;;;4896163;29;20124;-89
2021/07/27 11:43:12;;;;;;;27.25;7.85;;;31.20;99.90;;;;;;4889667;29;20052;-88
2021/07/27 11:45:40;;;;;;;33.30;8.98;;;31.20;99.90;;;;;;4874681;29;20033;-88
2021/07/27 11:48:06;;;;;;;30.48;8.25;;;31.20;99.90;;;;;;4892645;29;20029;-87
2021/07/27 11:50:34;;;;;;;29.35;8.70;;;31.10;99.90;;;;;;4894467;29;20027;-88
2021/07/27 11:53:02;;;;;;;26.75;8.52;;;31.10;99.90;;;;;;4895115;29;20044;-88
2021/07/27 11:55:29;;;;;;;23.75;8.13;;;31.10;99.90;;;;;;4898812;29;20049;-89
2021/07/27 11:57:55;;;;;;;31.60;7.20;;;31.20;99.90;;;;;;4884912;29;20112;-88
2021/07/27 12:00:21;;;;;;;27.88;8.70;;;31.10;99.90;;;;;;4902372;29;20033;-87
2021/07/27 12:02:47;;;;;;;25.38;7.63;;;30.90;99.90;;;;;;4902024;29;20024;-86
2021/07/27 12:06:00;;;;;;;28.38;8.35;;;30.80;99.90;;;;;;4902360;29;20029;-91
2021/07/27 12:08:26;;;;;;;43.45;8.48;;;30.80;99.90;;;;;;4891643;29;20041;-88
2021/07/27 12:10:51;;;;;;;26.42;7.88;;;30.70;99.90;;;;;;4907727;29;20072;-89
2021/07/27 12:13:17;;;;;;;32.03;7.70;;;30.70;99.90;;;;;;4900358;29;20088;-88
2021/07/27 12:15:46;;;;;;;32.63;8.50;;;30.70;99.90;;;;;;4906942;29;20044;-88
2021/07/27 12:18:12;;;;;;;25.98;8.80;;;30.70;99.90;;;;;;4901337;29;20032;-88
2021/07/27 12:20:37;;;;;;;41.00;9.35;;;30.80;99.90;;;;;;4881976;29;20044;-90
2021/07/27 12:23:03;;;;;;;40.55;8.95;;;31.00;99.90;;;;;;4885179;29;20047;-86
2021/07/27 12:25:32;;;;;;;42.78;9.07;;;31.00;99.90;;;;;;4899442;29;20028;-86
2021/07/27 12:27:58;;;;;;;31.02;9.25;;;31.00;99.90;;;;;;4896500;29;20097;-87
2021/07/27 12:30:23;;;;;;;20.90;8.40;;;31.10;99.90;;;;;;4900957;29;20116;-88
2021/07/27 12:32:49;;;;;;;36.38;9.55;;;31.10;99.90;;;;;;4901376;29;20049;-89
2021/07/27 12:35:18;;;;;;;28.75;8.48;;;31.20;99.90;;;;;;4914013;29;20507;-88
2021/07/27 12:37:46;;;;;;;33.65;8.38;;;31.20;99.90;;;;;;4902262;29;20157;-89
2021/07/27 12:40:13;;;;;;;34.85;8.13;;;31.30;99.90;;;;;;4900725;29;20051;-90
2021/07/27 12:42:38;;;;;;;31.33;9.43;;;31.40;99.90;;;;;;4885682;29;20393;-91
2021/07/27 12:45:05;;;;;;;32.72;9.35;;;31.40;99.90;;;;;;4902680;29;20107;-92
2021/07/27 12:47:31;;;;;;;48.22;9.95;;;31.40;99.90;;;;;;4888701;29;20044;-93
2021/07/27 12:49:58;;;;;;;30.35;9.20;;;31.20;99.90;;;;;;4901968;29;20497;-88
2021/07/27 12:52:24;;;;;;;42.30;11.05;;;31.10;99.90;;;;;;4883977;29;20079;-88
2021/07/27 12:54:50;;;;;;;37.60;10.07;;;31.00;99.90;;;;;;4884209;29;20052;-87
2021/07/27 12:57:16;;;;;;;42.88;12.77;;;30.90;99.90;;;;;;4901640;29;20043;-90
2021/07/27 12:59:42;;;;;;;47.15;10.10;;;30.80;99.90;;;;;;4898432;29;20068;-88
2021/07/27 13:02:09;;;;;;;41.10;10.95;;;30.70;99.90;;;;;;4901647;29;20077;-90
2021/07/27 13:04:37;;;;;;;33.38;8.45;;;30.70;99.90;;;;;;4906391;29;20122;-89
2021/07/27 13:07:07;;;;;;;34.92;9.02;;;30.80;99.90;;;;;;4899728;29;20039;-92
2021/07/27 13:09:35;;;;;;;25.88;8.27;;;30.80;99.90;;;;;;4898783;29;20549;-87